createdAt,value
2019-03-06T00:01:21.166Z,1.98
2019-03-06T00:03:01.941Z,1.97
2019-03-06T00:04:38.440Z,1.94
2019-03-06T00:06:19.257Z,2.05
2019-03-06T00:07:56.832Z,2.02
2019-03-06T00:09:32.869Z,1.99
2019-03-06T00:11:12.990Z,1.98
2019-03-06T00:12:54.464Z,1.96
2019-03-06T00:14:33.131Z,2.05
2019-03-06T00:16:13.035Z,1.96
2019-03-06T00:17:48.759Z,1.96
2019-03-06T00:19:27.202Z,1.95
2019-03-06T00:21:08.997Z,1.96
2019-03-06T00:22:48.723Z,1.95
2019-03-06T00:24:35.605Z,1.96
2019-03-06T00:26:25.304Z,1.93
2019-03-06T00:28:09.441Z,1.91
2019-03-06T00:29:52.474Z,1.98
2019-03-06T00:31:47.224Z,1.99
2019-03-06T00:33:22.311Z,1.89
2019-03-06T00:35:02.265Z,2.02
2019-03-06T00:36:39.110Z,2.01
2019-03-06T00:38:14.586Z,2.04
2019-03-06T00:40:00.687Z,2.11
2019-03-06T00:41:47.481Z,2.09
2019-03-06T00:43:24.305Z,2.03
2019-03-06T00:44:59.637Z,2.10
2019-03-06T00:46:35.304Z,2.07
2019-03-06T00:48:11.440Z,2.07
2019-03-06T00:49:47.816Z,2.07
2019-03-06T00:51:22.955Z,2.16
2019-03-06T00:52:59.372Z,2.22
2019-03-06T00:54:35.321Z,2.24
2019-03-06T00:56:11.215Z,2.26
2019-03-06T00:57:49.791Z,2.35
2019-03-06T00:59:24.932Z,2.31
2019-03-06T01:01:00.604Z,2.31
2019-03-06T01:02:38.294Z,2.37
2019-03-06T01:04:16.229Z,2.40
2019-03-06T01:06:00.356Z,2.50
2019-03-06T01:07:36.851Z,2.44
2019-03-06T01:09:14.725Z,2.50
2019-03-06T01:10:52.500Z,2.57
2019-03-06T01:12:30.998Z,2.56
2019-03-06T01:14:06.277Z,2.68
2019-03-06T01:15:41.404Z,2.75
2019-03-06T01:17:17.236Z,2.76
2019-03-06T01:18:52.308Z,2.71
2019-03-06T01:20:28.303Z,2.69
2019-03-06T01:22:04.614Z,2.71
2019-03-06T01:23:40.324Z,2.82
2019-03-06T01:25:16.182Z,2.80
2019-03-06T01:26:51.507Z,2.82
2019-03-06T01:28:26.646Z,2.83
2019-03-06T01:30:03.592Z,2.86
2019-03-06T01:31:39.679Z,2.89
2019-03-06T01:33:34.360Z,2.99
2019-03-06T01:35:30.684Z,3.03
2019-03-06T01:37:45.087Z,3.06
2019-03-06T01:39:51.142Z,3.05
2019-03-06T01:41:45.734Z,3.09
2019-03-06T01:43:29.066Z,3.14
2019-03-06T01:45:08.617Z,3.17
2019-03-06T01:46:43.739Z,3.13
2019-03-06T01:48:21.728Z,3.14
2019-03-06T01:49:56.736Z,3.14
2019-03-06T01:51:31.870Z,3.15
2019-03-06T01:53:09.535Z,3.17
2019-03-06T01:54:47.197Z,3.12
2019-03-06T01:56:22.586Z,3.14
2019-03-06T01:57:59.192Z,3.18
2019-03-06T01:59:34.543Z,3.20
2019-03-06T02:01:13.604Z,3.24
2019-03-06T02:02:49.065Z,3.19
2019-03-06T02:04:24.244Z,3.24
2019-03-06T02:06:00.164Z,3.22
2019-03-06T02:07:35.237Z,3.28
2019-03-06T02:09:11.060Z,3.28
2019-03-06T02:10:48.035Z,3.29
2019-03-06T02:12:23.141Z,3.39
2019-03-06T02:13:59.167Z,3.42
2019-03-06T02:15:34.666Z,3.44
2019-03-06T02:17:10.267Z,3.47
2019-03-06T02:18:47.103Z,3.53
2019-03-06T02:20:22.165Z,3.55
2019-03-06T02:21:57.244Z,3.53
2019-03-06T02:23:32.252Z,3.62
2019-03-06T02:25:07.712Z,3.64
2019-03-06T02:26:43.123Z,3.63
2019-03-06T02:28:19.295Z,3.58
2019-03-06T02:29:55.918Z,3.69
2019-03-06T02:31:31.342Z,3.75
2019-03-06T02:33:06.988Z,3.76
2019-03-06T02:34:42.361Z,3.75
2019-03-06T02:36:18.241Z,3.70
2019-03-06T02:37:53.311Z,3.76
2019-03-06T02:39:28.363Z,3.78
2019-03-06T02:41:03.860Z,3.83
2019-03-06T02:42:38.989Z,3.79
2019-03-06T02:44:13.978Z,3.84
2019-03-06T02:45:49.096Z,3.89
2019-03-06T02:47:24.150Z,3.90
2019-03-06T02:49:01.416Z,3.92
2019-03-06T02:50:36.716Z,3.94
2019-03-06T02:52:11.805Z,3.94
2019-03-06T02:53:46.819Z,3.97
2019-03-06T02:55:21.801Z,3.98
2019-03-06T02:56:57.707Z,3.94
2019-03-06T02:58:39.321Z,4.00
2019-03-06T03:00:57.823Z,4.05
2019-03-06T03:02:44.571Z,4.04
2019-03-06T03:04:34.639Z,4.01
2019-03-06T03:06:15.593Z,4.04
2019-03-06T03:07:56.235Z,4.08
2019-03-06T03:09:31.267Z,4.05
2019-03-06T03:11:06.344Z,4.05
2019-03-06T03:12:41.566Z,4.07
2019-03-06T03:14:16.965Z,4.13
2019-03-06T03:15:52.654Z,4.17
2019-03-06T03:17:27.655Z,4.22
2019-03-06T03:19:03.558Z,4.24
2019-03-06T03:20:38.785Z,4.19
2019-03-06T03:22:20.476Z,4.23
2019-03-06T03:23:55.618Z,4.19
2019-03-06T03:25:33.400Z,4.29
2019-03-06T03:27:08.463Z,4.30
2019-03-06T03:28:43.559Z,4.32
2019-03-06T03:30:18.896Z,4.33
2019-03-06T03:31:53.873Z,4.35
2019-03-06T03:33:28.896Z,4.35
2019-03-06T03:35:03.968Z,4.34
2019-03-06T03:36:38.940Z,4.38
2019-03-06T03:38:16.137Z,4.39
2019-03-06T03:39:54.562Z,4.44
2019-03-06T03:41:31.401Z,4.40
2019-03-06T03:43:06.443Z,4.33
2019-03-06T03:44:41.542Z,4.33
2019-03-06T03:46:17.356Z,4.38
2019-03-06T03:47:52.717Z,4.43
2019-03-06T03:49:28.008Z,4.47
2019-03-06T03:51:03.266Z,4.48
2019-03-06T03:52:38.718Z,4.47
2019-03-06T03:54:14.051Z,4.49
2019-03-06T03:55:49.545Z,4.49
2019-03-06T03:57:25.436Z,4.53
2019-03-06T03:59:00.510Z,4.53
2019-03-06T04:00:37.010Z,4.45
2019-03-06T04:02:12.137Z,4.51
2019-03-06T04:03:47.251Z,4.50
2019-03-06T04:05:22.869Z,4.45
2019-03-06T04:06:57.945Z,4.48
2019-03-06T04:08:32.971Z,4.52
2019-03-06T04:10:08.440Z,4.47
2019-03-06T04:11:43.847Z,4.56
2019-03-06T04:13:19.362Z,4.55
2019-03-06T04:14:55.575Z,4.55
2019-03-06T04:16:30.620Z,4.53
2019-03-06T04:18:06.450Z,4.55
2019-03-06T04:19:42.171Z,4.53
2019-03-06T04:21:17.377Z,4.58
2019-03-06T04:22:52.685Z,4.61
2019-03-06T04:24:28.269Z,4.58
2019-03-06T04:26:03.296Z,4.56
2019-03-06T04:27:39.009Z,4.55
2019-03-06T04:29:14.802Z,4.59
2019-03-06T04:30:53.404Z,4.65
2019-03-06T04:32:29.117Z,4.58
2019-03-06T04:34:04.339Z,4.64
2019-03-06T04:35:39.530Z,4.59
2019-03-06T04:37:14.836Z,4.57
2019-03-06T04:38:49.931Z,4.61
2019-03-06T04:40:25.080Z,4.64
2019-03-06T04:42:00.086Z,4.66
2019-03-06T04:43:35.427Z,4.61
2019-03-06T04:45:12.384Z,4.60
2019-03-06T04:46:47.561Z,4.60
2019-03-06T04:48:22.645Z,4.62
2019-03-06T04:49:57.950Z,4.59
2019-03-06T04:51:33.633Z,4.56
2019-03-06T04:53:09.067Z,4.53
2019-03-06T04:54:44.658Z,4.47
2019-03-06T04:56:20.314Z,4.46
2019-03-06T04:57:55.332Z,4.49
2019-03-06T04:59:33.448Z,4.57
2019-03-06T05:01:08.836Z,4.55
2019-03-06T05:02:43.957Z,4.51
2019-03-06T05:04:19.050Z,4.51
2019-03-06T05:05:54.547Z,4.46
2019-03-06T05:07:34.135Z,4.41
2019-03-06T05:09:11.936Z,4.43
2019-03-06T05:10:47.697Z,4.41
2019-03-06T05:12:24.576Z,4.38
2019-03-06T05:14:00.506Z,4.32
2019-03-06T05:15:38.805Z,4.20
2019-03-06T05:17:38.635Z,4.24
2019-03-06T05:19:14.335Z,4.22
2019-03-06T05:20:52.295Z,4.22
2019-03-06T05:22:27.349Z,4.22
2019-03-06T05:24:08.017Z,4.19
2019-03-06T05:25:52.299Z,4.16
2019-03-06T05:27:27.350Z,4.08
2019-03-06T05:29:02.795Z,3.97
2019-03-06T05:30:38.606Z,3.98
2019-03-06T05:32:47.884Z,3.98
2019-03-06T05:34:24.171Z,3.95
2019-03-06T05:36:34.179Z,3.84
2019-03-06T05:38:46.275Z,3.80
2019-03-06T05:40:22.247Z,3.77
2019-03-06T05:41:57.555Z,3.71
2019-03-06T05:43:34.296Z,3.68
2019-03-06T05:45:10.040Z,3.75
2019-03-06T05:46:51.391Z,3.71
2019-03-06T05:48:26.481Z,3.72
2019-03-06T05:50:01.775Z,3.65
2019-03-06T05:51:37.347Z,3.62
2019-03-06T05:53:13.588Z,3.65
2019-03-06T05:54:48.572Z,3.60
2019-03-06T05:56:23.760Z,3.54
2019-03-06T05:58:01.923Z,3.52
2019-03-06T05:59:37.016Z,3.48
2019-03-06T06:01:17.278Z,3.49
2019-03-06T06:02:57.089Z,3.48
2019-03-06T06:04:32.127Z,3.49
2019-03-06T06:06:07.400Z,3.43
2019-03-06T06:07:42.714Z,3.48
2019-03-06T06:09:17.952Z,3.41
2019-03-06T06:10:53.099Z,3.40
2019-03-06T06:12:29.167Z,3.46
2019-03-06T06:14:04.209Z,3.47
2019-03-06T06:15:39.218Z,3.48
2019-03-06T06:17:14.354Z,3.42
2019-03-06T06:18:49.563Z,3.40
2019-03-06T06:20:25.207Z,3.37
2019-03-06T06:22:09.013Z,3.39
2019-03-06T06:24:02.883Z,3.40
2019-03-06T06:25:38.027Z,3.42
2019-03-06T06:27:13.142Z,3.42
2019-03-06T06:28:51.574Z,3.45
2019-03-06T06:30:28.874Z,3.42
2019-03-06T06:32:04.676Z,3.45
2019-03-06T06:33:44.724Z,3.46
2019-03-06T06:35:26.500Z,3.49
2019-03-06T06:37:09.204Z,3.47
2019-03-06T06:38:45.080Z,3.47
2019-03-06T06:40:22.649Z,3.51
2019-03-06T06:41:57.872Z,3.54
2019-03-06T06:43:33.367Z,3.54
2019-03-06T06:45:10.110Z,3.58
2019-03-06T06:46:45.681Z,3.62
2019-03-06T06:48:22.295Z,3.60
2019-03-06T06:49:58.247Z,3.64
2019-03-06T06:52:16.720Z,3.66
2019-03-06T06:54:08.384Z,3.70
2019-03-06T06:56:11.020Z,3.76
2019-03-06T06:58:36.707Z,3.82
2019-03-06T07:01:09.679Z,3.86
2019-03-06T07:03:24.128Z,3.92
2019-03-06T07:05:31.043Z,4.00
2019-03-06T07:07:41.278Z,4.05
2019-03-06T07:09:42.242Z,4.08
2019-03-06T07:11:32.064Z,4.20
2019-03-06T07:13:35.411Z,4.26
2019-03-06T07:15:39.746Z,4.33
2019-03-06T07:17:35.140Z,4.44
2019-03-06T07:19:32.640Z,4.51
2019-03-06T07:21:21.924Z,4.57
2019-03-06T07:23:08.336Z,4.67
2019-03-06T07:25:00.301Z,4.77
2019-03-06T07:27:03.472Z,4.82
2019-03-06T07:29:01.316Z,4.88
2019-03-06T07:31:13.854Z,4.92
2019-03-06T07:33:08.553Z,4.91
2019-03-06T07:35:39.755Z,4.96
2019-03-06T07:37:35.078Z,4.96
2019-03-06T07:39:28.416Z,4.95
2019-03-06T07:41:20.751Z,4.96
2019-03-06T07:43:12.409Z,4.97
2019-03-06T07:45:44.214Z,5.01
2019-03-06T07:47:32.965Z,5.02
2019-03-06T07:49:30.298Z,5.04
2019-03-06T07:51:39.799Z,5.12
2019-03-06T07:54:31.789Z,5.17
2019-03-06T07:56:17.857Z,5.21
2019-03-06T07:58:28.384Z,5.30
2019-03-06T08:00:08.425Z,5.32
2019-03-06T08:01:58.009Z,5.40
2019-03-06T08:03:46.896Z,5.48
2019-03-06T08:05:26.255Z,5.50
2019-03-06T08:07:10.599Z,5.49
2019-03-06T08:08:46.048Z,5.55
2019-03-06T08:10:23.240Z,5.61
2019-03-06T08:12:17.338Z,5.63
2019-03-06T08:14:22.257Z,5.64
2019-03-06T08:16:06.849Z,5.69
2019-03-06T08:18:04.462Z,5.77
2019-03-06T08:20:08.994Z,5.81
2019-03-06T08:21:50.786Z,5.83
2019-03-06T08:23:35.186Z,5.84
2019-03-06T08:25:29.006Z,5.90
2019-03-06T08:27:04.690Z,5.91
2019-03-06T08:28:40.128Z,5.98
2019-03-06T08:30:20.966Z,6.06
2019-03-06T08:32:13.002Z,6.07
2019-03-06T08:33:46.068Z,5.99
2019-03-06T08:35:21.795Z,6.02
2019-03-06T08:36:57.387Z,6.06
2019-03-06T08:38:38.922Z,6.10
2019-03-06T08:40:18.647Z,6.16
2019-03-06T08:41:55.826Z,6.14
2019-03-06T08:43:31.342Z,6.13
2019-03-06T08:45:12.056Z,6.10
2019-03-06T08:47:17.342Z,6.16
2019-03-06T08:49:11.002Z,6.16
2019-03-06T08:51:05.470Z,6.24
2019-03-06T08:53:05.706Z,6.29
2019-03-06T08:54:50.629Z,6.32
2019-03-06T08:56:37.697Z,6.33
2019-03-06T08:58:30.238Z,6.37
2019-03-06T09:00:53.478Z,6.41
2019-03-06T09:02:46.127Z,6.57
2019-03-06T09:04:43.793Z,6.62
2019-03-06T09:06:34.885Z,6.65
2019-03-06T09:08:38.574Z,6.81
2019-03-06T09:10:21.902Z,6.96
2019-03-06T09:12:19.336Z,7.01
2019-03-06T09:14:17.274Z,7.04
2019-03-06T09:16:17.130Z,7.14
2019-03-06T09:18:17.175Z,7.21
2019-03-06T09:20:11.676Z,7.24
2019-03-06T09:22:06.718Z,7.34
2019-03-06T09:24:08.893Z,7.43
2019-03-06T09:26:02.920Z,7.54
2019-03-06T09:27:53.943Z,7.77
2019-03-06T09:29:57.304Z,7.98
2019-03-06T09:31:44.674Z,8.15
2019-03-06T09:33:43.059Z,8.44
2019-03-06T09:35:33.595Z,8.44
2019-03-06T09:37:28.342Z,8.56
2019-03-06T09:39:30.449Z,8.83
2019-03-06T09:41:25.270Z,8.88
2019-03-06T09:43:30.495Z,9.01
2019-03-06T09:45:18.510Z,9.08
2019-03-06T09:47:14.003Z,9.23
2019-03-06T09:49:12.229Z,9.24
2019-03-06T09:51:16.083Z,9.39
2019-03-06T09:53:23.771Z,9.35
2019-03-06T09:55:42.086Z,9.52
2019-03-06T09:57:52.136Z,9.50
2019-03-06T09:59:36.184Z,9.67
2019-03-06T10:01:26.584Z,9.51
2019-03-06T10:03:21.490Z,9.62
2019-03-06T10:05:12.677Z,9.65
2019-03-06T10:07:09.325Z,9.44
2019-03-06T10:08:57.591Z,9.44
2019-03-06T10:10:57.980Z,9.46
2019-03-06T10:12:48.509Z,9.51
2019-03-06T10:14:53.629Z,9.67
2019-03-06T10:16:52.839Z,9.86
2019-03-06T10:18:50.867Z,10.09
2019-03-06T10:20:38.257Z,10.64
2019-03-06T10:22:15.332Z,10.86
2019-03-06T10:23:53.448Z,11.08
2019-03-06T10:25:33.851Z,10.84
2019-03-06T10:27:12.132Z,10.70
2019-03-06T10:28:47.906Z,10.48
2019-03-06T10:30:25.119Z,10.49
2019-03-06T10:32:01.275Z,10.34
2019-03-06T10:33:38.822Z,10.35
2019-03-06T10:35:14.967Z,10.26
2019-03-06T10:37:02.302Z,10.28
2019-03-06T10:38:56.151Z,10.02
2019-03-06T10:40:38.485Z,9.89
2019-03-06T10:42:17.550Z,9.89
2019-03-06T10:44:03.965Z,9.80
2019-03-06T10:45:43.886Z,9.70
2019-03-06T10:47:25.261Z,9.61
2019-03-06T10:49:23.549Z,9.72
2019-03-06T10:51:02.381Z,9.69
2019-03-06T10:52:39.550Z,9.64
2019-03-06T10:54:14.899Z,9.68
2019-03-06T10:55:53.273Z,9.67
2019-03-06T10:57:36.932Z,9.69
2019-03-06T10:59:14.264Z,9.68
2019-03-06T11:00:55.595Z,9.67
2019-03-06T11:02:34.870Z,9.64
2019-03-06T11:04:25.983Z,9.77
2019-03-06T11:06:09.344Z,9.94
2019-03-06T11:07:53.081Z,10.33
2019-03-06T11:09:45.269Z,10.57
2019-03-06T11:11:24.784Z,10.67
2019-03-06T11:13:02.215Z,10.69
2019-03-06T11:14:44.518Z,10.75
2019-03-06T11:16:23.222Z,11.04
2019-03-06T11:18:03.110Z,11.22
2019-03-06T11:19:45.892Z,11.37
2019-03-06T11:21:24.426Z,11.38
2019-03-06T11:23:03.595Z,11.52
2019-03-06T11:24:39.901Z,11.58
2019-03-06T11:26:36.377Z,11.41
2019-03-06T11:28:17.474Z,11.45
2019-03-06T11:29:56.748Z,11.39
2019-03-06T11:31:50.501Z,11.57
2019-03-06T11:33:29.124Z,11.67
2019-03-06T11:35:14.126Z,11.60
2019-03-06T11:36:59.143Z,11.60
2019-03-06T11:38:44.372Z,11.66
2019-03-06T11:40:24.114Z,11.54
2019-03-06T11:42:09.300Z,11.63
2019-03-06T11:43:47.257Z,11.45
2019-03-06T11:45:23.216Z,11.38
2019-03-06T11:47:02.116Z,11.33
2019-03-06T11:48:39.925Z,11.39
2019-03-06T11:50:18.281Z,11.28
2019-03-06T11:51:59.201Z,11.31
2019-03-06T11:53:37.425Z,11.24
2019-03-06T11:55:16.074Z,11.30
2019-03-06T11:56:58.631Z,11.22
2019-03-06T11:58:34.461Z,11.41
2019-03-06T12:00:14.862Z,11.38
2019-03-06T12:01:50.757Z,11.39
2019-03-06T12:03:28.580Z,11.21
2019-03-06T12:05:10.231Z,11.30
2019-03-06T12:06:48.716Z,11.23
2019-03-06T12:08:27.845Z,11.30
2019-03-06T12:10:05.833Z,11.17
2019-03-06T12:11:45.155Z,11.20
2019-03-06T12:13:25.869Z,11.03
2019-03-06T12:15:05.565Z,11.05
2019-03-06T12:16:45.994Z,11.04
2019-03-06T12:18:36.554Z,11.14
2019-03-06T12:20:22.266Z,11.10
2019-03-06T12:22:24.412Z,11.35
2019-03-06T12:24:01.243Z,11.32
2019-03-06T12:25:37.220Z,11.31
2019-03-06T12:27:20.755Z,11.03
2019-03-06T12:28:58.253Z,11.03
2019-03-06T12:30:41.965Z,11.06
2019-03-06T12:32:20.591Z,11.12
2019-03-06T12:34:02.465Z,11.18
2019-03-06T12:35:51.763Z,11.22
2019-03-06T12:37:33.459Z,11.15
2019-03-06T12:39:10.412Z,11.07
2019-03-06T12:40:45.662Z,11.11
2019-03-06T12:42:28.006Z,11.16
2019-03-06T12:44:10.325Z,11.16
2019-03-06T12:46:06.788Z,11.08
2019-03-06T12:47:55.183Z,11.09
2019-03-06T12:49:33.657Z,11.17
2019-03-06T12:51:17.095Z,11.16
2019-03-06T12:52:53.772Z,11.24
2019-03-06T12:54:31.065Z,11.30
2019-03-06T12:56:08.689Z,11.33
2019-03-06T12:57:44.791Z,11.28
2019-03-06T12:59:20.276Z,11.27
2019-03-06T13:00:57.550Z,11.29
2019-03-06T13:02:35.773Z,11.28
2019-03-06T13:04:10.907Z,11.26
2019-03-06T13:05:48.383Z,11.15
2019-03-06T13:07:31.854Z,11.20
2019-03-06T13:09:15.252Z,11.15
2019-03-06T13:10:51.134Z,11.09
2019-03-06T13:12:31.106Z,11.01
2019-03-06T13:14:16.407Z,10.97
2019-03-06T13:16:15.099Z,10.99
2019-03-06T13:17:46.769Z,10.75
2019-03-06T13:19:22.384Z,10.86
2019-03-06T13:21:02.574Z,10.81
2019-03-06T13:22:40.885Z,10.72
2019-03-06T13:24:23.479Z,10.68
2019-03-06T13:26:10.456Z,10.64
2019-03-06T13:27:48.072Z,10.65
2019-03-06T13:29:30.581Z,10.59
2019-03-06T13:31:06.546Z,10.60
2019-03-06T13:32:54.366Z,10.59
2019-03-06T13:34:51.190Z,10.69
2019-03-06T13:36:32.405Z,10.69
2019-03-06T13:38:16.002Z,10.57
2019-03-06T13:39:55.171Z,10.60
2019-03-06T13:41:31.411Z,10.48
2019-03-06T13:43:35.269Z,10.46
2019-03-06T13:45:24.327Z,10.33
2019-03-06T13:47:02.352Z,10.35
2019-03-06T13:48:45.129Z,10.38
2019-03-06T13:50:26.559Z,10.30
2019-03-06T13:52:02.894Z,10.30
2019-03-06T13:53:51.382Z,10.30
2019-03-06T13:55:30.982Z,10.30
2019-03-06T13:57:09.368Z,10.43
2019-03-06T13:58:46.844Z,10.43
2019-03-06T14:00:30.084Z,10.43
2019-03-06T14:02:13.636Z,10.39
2019-03-06T14:03:54.382Z,10.32
2019-03-06T14:05:41.422Z,10.35
2019-03-06T14:07:23.119Z,10.32
2019-03-06T14:09:17.210Z,10.34
2019-03-06T14:11:06.330Z,10.29
2019-03-06T14:12:47.805Z,10.19
2019-03-06T14:14:26.101Z,10.17
2019-03-06T14:16:04.798Z,10.14
2019-03-06T14:17:43.429Z,10.08
2019-03-06T14:19:24.878Z,9.95
2019-03-06T14:21:26.406Z,9.93
2019-03-06T14:23:05.732Z,10.03
2019-03-06T14:25:04.033Z,10.08
2019-03-06T14:26:45.586Z,10.09
2019-03-06T14:28:23.210Z,9.94
2019-03-06T14:29:59.972Z,9.88
2019-03-06T14:32:14.644Z,9.87
2019-03-06T14:34:13.378Z,9.81
2019-03-06T14:35:53.469Z,9.79
2019-03-06T14:37:48.443Z,9.75
2019-03-06T14:39:32.182Z,9.65
2019-03-06T14:41:07.397Z,9.59
2019-03-06T14:42:48.441Z,9.64
2019-03-06T14:44:47.029Z,9.62
2019-03-06T14:46:26.723Z,9.55
2019-03-06T14:48:07.770Z,9.46
2019-03-06T14:49:43.047Z,9.38
2019-03-06T14:51:21.079Z,9.41
2019-03-06T14:52:56.535Z,9.40
2019-03-06T14:54:35.365Z,9.34
2019-03-06T14:56:16.092Z,9.32
2019-03-06T14:57:59.356Z,9.32
2019-03-06T14:59:37.713Z,9.25
2019-03-06T15:01:19.301Z,9.26
2019-03-06T15:03:04.966Z,9.25
2019-03-06T15:04:36.023Z,9.25
2019-03-06T15:06:12.702Z,9.22
2019-03-06T15:07:51.381Z,9.26
2019-03-06T15:09:44.477Z,9.20
2019-03-06T15:11:20.245Z,9.22
2019-03-06T15:12:59.343Z,9.16
2019-03-06T15:14:38.083Z,9.17
2019-03-06T15:16:15.285Z,9.18
2019-03-06T15:17:50.504Z,9.15
2019-03-06T15:19:26.779Z,9.10
2019-03-06T15:21:06.319Z,9.11
2019-03-06T15:22:46.833Z,9.04
2019-03-06T15:24:24.432Z,8.99
2019-03-06T15:25:59.933Z,8.91
2019-03-06T15:27:36.175Z,8.89
2019-03-06T15:29:15.235Z,8.81
2019-03-06T15:30:54.002Z,8.79
2019-03-06T15:32:34.191Z,8.74
2019-03-06T15:34:13.776Z,8.75
2019-03-06T15:35:53.384Z,8.76
2019-03-06T15:37:37.437Z,8.73
2019-03-06T15:39:42.171Z,8.78
2019-03-06T15:41:09.338Z,8.76
2019-03-06T15:42:44.759Z,8.80
2019-03-06T15:44:21.252Z,8.79
2019-03-06T15:46:02.007Z,8.88
2019-03-06T15:47:40.648Z,8.94
2019-03-06T15:49:21.802Z,8.96
2019-03-06T15:51:01.544Z,8.94
2019-03-06T15:52:40.065Z,8.94
2019-03-06T15:54:16.319Z,8.96
2019-03-06T15:55:54.157Z,9.01
2019-03-06T15:57:59.383Z,9.01
2019-03-06T16:01:53.115Z,9.06
2019-03-06T16:03:40.484Z,9.04
2019-03-06T16:05:20.485Z,9.03
2019-03-06T16:07:02.477Z,8.99
2019-03-06T16:08:42.034Z,8.96
2019-03-06T16:10:19.417Z,8.89
2019-03-06T16:12:04.166Z,8.88
2019-03-06T16:13:45.235Z,8.82
2019-03-06T16:15:27.010Z,8.75
2019-03-06T16:17:08.006Z,8.67
2019-03-06T16:18:49.669Z,8.52
2019-03-06T16:20:26.318Z,8.47
2019-03-06T16:22:06.586Z,8.37
2019-03-06T16:23:50.074Z,8.26
2019-03-06T16:25:36.418Z,8.26
2019-03-06T16:27:16.598Z,8.17
2019-03-06T16:28:57.012Z,8.24
2019-03-06T16:30:41.117Z,8.20
2019-03-06T16:32:19.126Z,8.17
2019-03-06T16:33:56.608Z,8.14
2019-03-06T16:35:35.452Z,8.20
2019-03-06T16:37:16.214Z,8.17
2019-03-06T16:38:51.090Z,8.15
2019-03-06T16:40:30.765Z,8.24
2019-03-06T16:42:15.708Z,8.26
2019-03-06T16:43:53.055Z,8.20
2019-03-06T16:45:31.708Z,8.24
2019-03-06T16:47:08.941Z,8.30
2019-03-06T16:48:44.495Z,8.33
2019-03-06T16:50:26.480Z,8.34
2019-03-06T16:52:03.414Z,8.35
2019-03-06T16:53:49.150Z,8.48
2019-03-06T16:55:36.650Z,8.47
2019-03-06T16:57:14.594Z,8.47
2019-03-06T16:58:52.502Z,8.48
2019-03-06T17:00:29.511Z,8.53
2019-03-06T17:02:05.213Z,8.50
2019-03-06T17:03:46.614Z,8.58
2019-03-06T17:05:22.538Z,8.66
2019-03-06T17:07:00.468Z,8.65
2019-03-06T17:08:41.895Z,8.69
2019-03-06T17:10:36.346Z,8.70
2019-03-06T17:12:18.985Z,8.65
2019-03-06T17:14:03.251Z,8.80
2019-03-06T17:16:04.973Z,8.75
2019-03-06T17:17:41.431Z,8.80
2019-03-06T17:19:23.998Z,8.82
2019-03-06T17:21:14.223Z,8.84
2019-03-06T17:23:02.752Z,8.82
2019-03-06T17:24:40.655Z,8.84
2019-03-06T17:26:22.781Z,8.79
2019-03-06T17:28:01.786Z,8.73
2019-03-06T17:29:39.136Z,8.66
2019-03-06T17:31:20.755Z,8.53
2019-03-06T17:33:07.713Z,8.50
2019-03-06T17:34:44.519Z,8.46
2019-03-06T17:36:20.520Z,8.37
2019-03-06T17:37:57.961Z,8.28
2019-03-06T17:39:38.431Z,8.25
2019-03-06T17:41:20.298Z,8.15
2019-03-06T17:42:56.453Z,8.12
2019-03-06T17:44:36.213Z,8.08
2019-03-06T17:46:11.680Z,8.02
2019-03-06T17:47:47.690Z,8.03
2019-03-06T17:49:36.415Z,8.04
2019-03-06T17:51:11.980Z,8.01
2019-03-06T17:52:48.503Z,7.96
2019-03-06T17:54:26.880Z,7.96
2019-03-06T17:56:05.899Z,7.88
2019-03-06T17:57:41.696Z,7.92
2019-03-06T17:59:21.074Z,7.90
2019-03-06T18:01:03.576Z,7.94
2019-03-06T18:02:51.330Z,7.95
2019-03-06T18:04:30.581Z,7.88
2019-03-06T18:06:14.298Z,7.79
2019-03-06T18:07:55.881Z,7.80
2019-03-06T18:09:36.181Z,7.81
2019-03-06T18:11:14.578Z,7.83
2019-03-06T18:13:03.421Z,7.85
2019-03-06T18:14:46.904Z,7.86
2019-03-06T18:16:29.569Z,7.73
2019-03-06T18:18:09.739Z,7.81
2019-03-06T18:19:53.567Z,7.81
2019-03-06T18:21:30.883Z,7.84
2019-03-06T18:23:09.509Z,7.76
2019-03-06T18:24:49.098Z,7.75
2019-03-06T18:26:33.703Z,7.76
2019-03-06T18:28:15.585Z,7.76
2019-03-06T18:29:50.672Z,7.77
2019-03-06T18:31:27.268Z,7.74
2019-03-06T18:33:06.859Z,7.72
2019-03-06T18:34:43.880Z,7.72
2019-03-06T18:36:27.484Z,7.70
2019-03-06T18:38:09.446Z,7.69
2019-03-06T18:39:45.145Z,7.73
2019-03-06T18:41:23.286Z,7.69
2019-03-06T18:42:59.332Z,7.66
2019-03-06T18:44:35.156Z,7.71
2019-03-06T18:46:10.927Z,7.66
2019-03-06T18:47:53.058Z,7.69
2019-03-06T18:49:32.951Z,7.73
2019-03-06T18:51:10.312Z,7.70
2019-03-06T18:52:59.300Z,7.71
2019-03-06T18:54:35.546Z,7.66
2019-03-06T18:56:11.377Z,7.70
2019-03-06T18:57:46.623Z,7.72
2019-03-06T18:59:22.641Z,7.73
2019-03-06T19:01:00.184Z,7.68
2019-03-06T19:02:38.094Z,7.73
2019-03-06T19:04:16.174Z,7.76
2019-03-06T19:05:54.447Z,7.76
2019-03-06T19:07:35.187Z,7.73
2019-03-06T19:09:19.736Z,7.70
2019-03-06T19:10:55.054Z,7.77
2019-03-06T19:12:34.615Z,7.75
2019-03-06T19:14:10.160Z,7.79
2019-03-06T19:15:53.773Z,7.83
2019-03-06T19:17:32.635Z,7.80
2019-03-06T19:19:07.914Z,7.80
2019-03-06T19:20:43.213Z,7.75
2019-03-06T19:22:25.553Z,7.81
2019-03-06T19:24:00.604Z,7.78
2019-03-06T19:25:36.614Z,7.82
2019-03-06T19:27:20.246Z,7.84
2019-03-06T19:29:00.484Z,7.79
2019-03-06T19:30:51.355Z,7.87
2019-03-06T19:32:25.392Z,7.82
2019-03-06T19:34:03.112Z,7.83
2019-03-06T19:35:38.256Z,7.82
2019-03-06T19:37:20.613Z,7.79
2019-03-06T19:38:56.188Z,7.81
2019-03-06T19:40:34.218Z,7.81
2019-03-06T19:42:12.039Z,7.84
2019-03-06T19:43:50.492Z,7.83
2019-03-06T19:45:31.671Z,7.84
2019-03-06T19:47:07.050Z,7.84
2019-03-06T19:48:47.236Z,7.78
2019-03-06T19:50:30.362Z,7.82
2019-03-06T19:51:59.987Z,7.80
2019-03-06T19:53:42.727Z,7.79
2019-03-06T19:55:18.688Z,7.83
2019-03-06T19:56:56.698Z,7.79
2019-03-06T19:58:41.173Z,7.83
2019-03-06T20:00:29.324Z,7.84
2019-03-06T20:02:10.798Z,7.79
2019-03-06T20:03:52.069Z,7.71
2019-03-06T20:05:34.775Z,7.68
2019-03-06T20:07:12.794Z,7.69
2019-03-06T20:08:49.171Z,7.73
2019-03-06T20:10:32.488Z,7.70
2019-03-06T20:12:08.675Z,7.70
2019-03-06T20:13:47.172Z,7.76
2019-03-06T20:15:31.395Z,7.71
2019-03-06T20:17:13.068Z,7.71
2019-03-06T20:18:49.644Z,7.74
2019-03-06T20:20:33.259Z,7.74
2019-03-06T20:22:31.609Z,7.77
2019-03-06T20:24:06.998Z,7.74
2019-03-06T20:25:51.819Z,7.72
2019-03-06T20:27:30.542Z,7.67
2019-03-06T20:29:09.437Z,7.69
2019-03-06T20:30:47.807Z,7.63
2019-03-06T20:32:22.944Z,7.70
2019-03-06T20:34:05.504Z,7.74
2019-03-06T20:35:44.395Z,7.70
2019-03-06T20:37:20.629Z,7.68
2019-03-06T20:39:12.973Z,7.72
2019-03-06T20:40:53.098Z,7.70
2019-03-06T20:42:32.600Z,7.74
2019-03-06T20:44:10.768Z,7.73
2019-03-06T20:45:49.065Z,7.67
2019-03-06T20:47:24.525Z,7.71
2019-03-06T20:49:04.416Z,7.70
2019-03-06T20:50:50.492Z,7.67
2019-03-06T20:52:26.101Z,7.73
2019-03-06T20:54:07.155Z,7.73
2019-03-06T20:55:42.509Z,7.75
2019-03-06T20:57:22.222Z,7.77
2019-03-06T20:59:08.460Z,7.71
2019-03-06T21:00:43.144Z,7.76
2019-03-06T21:02:30.477Z,7.74
2019-03-06T21:04:08.634Z,7.74
2019-03-06T21:05:44.969Z,7.71
2019-03-06T21:07:25.681Z,7.72
2019-03-06T21:09:04.537Z,7.76
2019-03-06T21:10:55.854Z,7.75
2019-03-06T21:12:39.546Z,7.71
2019-03-06T21:14:16.427Z,7.74
2019-03-06T21:15:51.692Z,7.77
2019-03-06T21:17:27.059Z,7.75
2019-03-06T21:19:09.391Z,7.71
2019-03-06T21:20:51.801Z,7.72
2019-03-06T21:22:33.581Z,7.74
2019-03-06T21:24:16.200Z,7.70
2019-03-06T21:25:58.412Z,7.64
2019-03-06T21:27:34.490Z,7.63
2019-03-06T21:29:10.342Z,7.69
2019-03-06T21:30:50.169Z,7.71
2019-03-06T21:32:42.341Z,7.72
2019-03-06T21:34:12.113Z,7.68
2019-03-06T21:35:51.079Z,7.63
2019-03-06T21:37:26.370Z,7.65
2019-03-06T21:39:17.642Z,7.61
2019-03-06T21:40:56.147Z,7.63
2019-03-06T21:42:54.141Z,7.63
2019-03-06T21:44:34.570Z,7.59
2019-03-06T21:46:10.220Z,7.65
2019-03-06T21:47:45.582Z,7.69
2019-03-06T21:49:21.194Z,7.64
2019-03-06T21:51:05.275Z,7.68
2019-03-06T21:52:43.893Z,7.66
2019-03-06T21:54:23.009Z,7.76
2019-03-06T21:56:05.068Z,7.69
2019-03-06T21:57:42.545Z,7.72
2019-03-06T21:59:26.706Z,7.79
2019-03-06T22:01:03.718Z,7.78
2019-03-06T22:02:41.501Z,7.80
2019-03-06T22:04:19.191Z,7.81
2019-03-06T22:06:04.797Z,7.81
2019-03-06T22:07:44.256Z,7.81
2019-03-06T22:09:20.174Z,7.82
2019-03-06T22:10:58.884Z,7.81
2019-03-06T22:12:34.446Z,7.73
2019-03-06T22:14:43.894Z,7.71
2019-03-06T22:16:34.289Z,7.76
2019-03-06T22:18:22.170Z,7.73
2019-03-06T22:20:00.296Z,7.67
2019-03-06T22:21:36.068Z,7.67
2019-03-06T22:23:11.697Z,7.68
2019-03-06T22:24:51.491Z,7.66
2019-03-06T22:26:31.605Z,7.69
2019-03-06T22:28:10.891Z,7.72
2019-03-06T22:29:49.295Z,7.72
2019-03-06T22:31:32.643Z,7.69
2019-03-06T22:33:28.779Z,7.67
2019-03-06T22:35:04.253Z,7.68